Extreme weather reports worldwide

Snow

Station
 
Location
 
Name
 
Wind
Knots
Gust
Knots
Vis
SM
Temp/Dew
C
Baro
inHg
METAR
 
YFB CYFB Iqaluit, CA Iqaluit Airport 21 26 3 2/0 29.52 CYFB 232200Z 12021G26KT 3SM -RASN OVC010 02/M00 A2952 RMK SN5SC3 SLP000
CWGZ 15 23 6 0/-5 29.98 CWGZ 232200Z 08015G23KT 6SM -SN BKN052 OVC240 00/M05 A2998 RMK SC5CI3 SLP157
AKP PAKP Anaktuvuk Pass, US Anaktuvuk Pass Airport 11 17 9 -1/-6 29.59 PAKP 232156Z AUTO 02011G17KT 9SM -SN BKN022 BKN028 OVC035 M02/M06 A2959 RMK AO2 SLP063 P0000 T10171061 FZRANO
YRB CYRB Resolute Bay, CA Resolute Bay Airport 12 1.25 -1/-2 29.87 CYRB 232200Z 13012KT 1 1/4SM -SN BR SCT003 BKN020 OVC070 M01/M02 A2987 RMK ST3SC4AC1 SLP123
ARC PARC Arctic Village, US Arctic Village Airport 8 1.75 0/-1 29.51 PARC 232156Z AUTO 32008KT 1 3/4SM -SN BR OVC019 01/M01 A2951 RMK AO2 RAB25E42UPB42E54SNB54 SLP036 P0000 T00061011 FZRANO

Station
 
Location
 
Name
 
Wind
Knots
Gust
Knots
Vis
SM
Temp/Dew
C
Baro
inHg
METAR
 
AEY BIAR Akureyri, IS Akureyri Airport 2 3.11 1/0 29.65 BIAR 232200Z VRB02KT 5000 -RASN FEW006 BKN016 OVC020 01/00 Q1004
DNN KDNN Dalton, US Dalton Municipal Airport 0 10 21/16 30.07 KDNN 232215Z AUTO 00000KT 10SM -SN SCT031 BKN070 OVC110 21/16 A3007 RMK AO2
CWEU 0 8 -7/-9 30.01 CWEU 232200Z 00000KT 8SM -SN SCT018 BKN036 BKN110 M07/M09 A3001 RMK ST4SC2AC1 SLP173